Time;durP1;ratioP1;P1;durP2;ratioP2;P2;SDS_P1;SDS_P2;PMS_P1;PMS_P2;Temp;Humidity;BMP_temperature;BMP_pressure;BME280_temperature;BME280_humidity;BME280_pressure;Samples;Min_cycle;Max_cycle;Signal;HPM_P1;HPM_P2
2022/06/22 00:01:23;;;;;;;3.37;2.20;;;;;;;25.44;44.59;100002.70;1746704;81;21015;-78
2022/06/22 00:03:52;;;;;;;3.00;2.20;;;;;;;25.44;44.59;99999.91;1723870;82;21566;-78
2022/06/22 00:06:41;;;;;;;3.15;2.25;;;;;;;25.44;44.64;100002.70;1726323;80;21009;-80
2022/06/22 00:09:07;;;;;;;2.40;2.05;;;;;;;25.43;44.65;100010.25;1720699;82;21012;-78
2022/06/22 00:11:35;;;;;;;3.87;2.45;;;;;;;25.43;44.66;100018.60;1729840;81;21033;-78
2022/06/22 00:14:02;;;;;;;3.22;1.92;;;;;;;25.43;44.68;100021.97;1722155;82;21048;-79
2022/06/22 00:16:33;;;;;;;2.62;1.98;;;;;;;25.42;44.69;100014.20;1721481;82;21133;-78
2022/06/22 00:18:59;;;;;;;3.45;2.22;;;;;;;25.43;44.69;100017.80;1741707;82;21052;-79
2022/06/22 00:21:34;;;;;;;3.37;2.35;;;;;;;25.42;44.73;100021.16;1736782;81;21059;-78
2022/06/22 00:24:26;;;;;;;2.45;1.95;;;;;;;25.43;44.73;100016.40;1695050;83;21056;-78
2022/06/22 00:27:19;;;;;;;3.25;2.10;;;;;;;25.43;44.74;100021.97;1733718;81;21036;-78
2022/06/22 00:29:46;;;;;;;3.83;2.22;;;;;;;25.42;44.76;100026.73;1717080;82;21110;-79
2022/06/22 00:32:26;;;;;;;4.00;2.22;;;;;;;25.42;44.78;100024.53;1723335;82;20949;-79
2022/06/22 00:34:52;;;;;;;3.47;2.10;;;;;;;25.41;44.80;100024.33;1726125;82;21040;-79
2022/06/22 00:37:30;;;;;;;4.42;2.35;;;;;;;25.41;44.81;100018.18;1738363;82;21495;-78
2022/06/22 00:40:01;;;;;;;2.65;2.15;;;;;;;25.41;44.85;100025.14;1747123;81;20989;-78
2022/06/22 00:42:39;;;;;;;;;;;;;;;25.41;44.87;100027.93;1741016;81;21590;-79
2022/06/22 00:45:19;;;;;;;3.75;2.40;;;;;;;25.40;44.88;100019.34;1720119;80;20435;-79
2022/06/22 00:47:59;;;;;;;4.23;2.13;;;;;;;25.39;44.92;100030.27;1731262;81;21080;-78
2022/06/22 00:50:40;;;;;;;2.87;2.00;;;;;;;25.39;44.93;100022.49;1745022;81;21595;-78
2022/06/22 00:53:34;;;;;;;2.62;2.02;;;;;;;25.39;44.94;100021.91;1716066;82;21068;-78
2022/06/22 00:56:27;;;;;;;3.08;2.02;;;;;;;25.38;44.97;100008.34;1721563;82;22240;-79
2022/06/22 00:59:01;;;;;;;3.47;2.22;;;;;;;25.38;44.99;100009.16;1677020;82;21065;-78
2022/06/22 01:01:45;;;;;;;3.85;1.87;;;;;;;25.37;45.00;100012.33;1717186;82;21056;-79
2022/06/22 01:04:26;;;;;;;2.90;1.90;;;;;;;25.37;45.01;100014.52;1734331;81;21450;-79
2022/06/22 01:06:55;;;;;;;;;;;;;;;25.37;45.02;100025.66;1719884;82;21017;-78
2022/06/22 01:09:36;;;;;;;3.12;2.10;;;;;;;25.36;45.05;100028.22;1729202;81;21180;-78
2022/06/22 01:12:31;;;;;;;2.72;2.35;;;;;;;25.36;45.04;100037.97;1738248;81;21079;-78
2022/06/22 01:15:09;;;;;;;2.47;2.00;;;;;;;25.36;45.07;100039.95;1742671;81;21045;-78
2022/06/22 01:17:56;;;;;;;2.75;1.92;;;;;;;25.35;45.07;100033.56;1727286;81;21107;-78
2022/06/22 01:20:43;;;;;;;2.83;2.15;;;;;;;25.35;45.09;100026.60;1726053;81;21020;-78
2022/06/22 01:23:54;;;;;;;2.12;1.92;;;;;;;25.35;45.10;100029.97;1740399;81;21131;-79
2022/06/22 01:26:50;;;;;;;3.12;2.35;;;;;;;25.35;45.14;100031.36;1737044;81;21037;-78
2022/06/22 01:29:23;;;;;;;3.50;1.67;;;;;;;25.33;45.13;100031.72;1718167;81;21048;-78
2022/06/22 01:32:04;;;;;;;3.75;2.40;;;;;;;25.34;45.16;100038.10;1733790;81;21080;-79
2022/06/22 01:34:41;;;;;;;3.05;2.22;;;;;;;25.34;45.19;100044.48;1719496;81;21022;-78
2022/06/22 01:37:14;;;;;;;3.72;2.10;;;;;;;25.33;45.19;100047.03;1730588;81;21137;-78
2022/06/22 01:39:41;;;;;;;2.92;2.20;;;;;;;25.34;45.19;100045.88;1721077;81;21398;-78
2022/06/22 01:42:24;;;;;;;2.15;1.62;;;;;;;25.34;45.22;100043.67;1730984;81;21020;-78
2022/06/22 01:45:30;;;;;;;3.62;2.12;;;;;;;25.33;45.23;100044.25;1715892;82;21196;-78
2022/06/22 01:48:14;;;;;;;2.35;1.67;;;;;;;25.34;45.24;100046.45;1720077;82;21061;-78
2022/06/22 01:51:00;;;;;;;3.00;2.00;;;;;;;25.33;45.24;100051.21;1730977;80;21218;-78
2022/06/22 01:53:52;;;;;;;3.45;1.92;;;;;;;25.33;45.26;100058.17;1730478;82;21044;-77
2022/06/22 01:56:39;;;;;;;2.50;1.80;;;;;;;25.32;45.23;100059.38;1733256;81;21060;-77
2022/06/22 01:59:27;;;;;;;2.50;2.10;;;;;;;25.32;45.25;100052.99;1717316;82;21024;-79
2022/06/22 02:02:15;;;;;;;3.00;2.10;;;;;;;25.33;45.24;100051.83;1668001;82;21531;-78
2022/06/22 02:04:47;;;;;;;3.08;2.10;;;;;;;25.32;45.26;100056.59;1744866;81;21164;-78
2022/06/22 02:10:36;;;;;;;2.00;1.75;;;;;;;25.32;45.31;100058.56;1717181;82;21490;-78
2022/06/22 02:13:39;;;;;;;2.62;2.20;;;;;;;25.32;45.30;100061.34;1730287;82;21084;-78
2022/06/22 02:16:47;;;;;;;2.75;2.10;;;;;;;25.31;45.31;100059.14;1742289;81;21115;-78
2022/06/22 02:19:17;;;;;;;3.95;1.90;;;;;;;25.30;45.30;100053.34;1738459;82;21124;-78
2022/06/22 02:21:53;;;;;;;2.52;2.10;;;;;;;25.29;45.32;100057.30;1738021;81;21550;-78
2022/06/22 02:24:43;;;;;;;4.47;2.10;;;;;;;25.29;45.33;100062.87;1724364;82;21052;-78
2022/06/22 02:27:20;;;;;;;2.77;2.05;;;;;;;25.30;45.36;100070.05;1736984;81;21475;-78
2022/06/22 02:29:50;;;;;;;3.37;1.92;;;;;;;25.29;45.37;100074.00;1719490;82;21067;-78
2022/06/22 02:32:20;;;;;;;1.90;1.63;;;;;;;25.29;45.38;100085.14;1731314;81;21439;-79
2022/06/22 02:34:49;;;;;;;3.65;1.95;;;;;;;25.29;45.39;100083.75;1715577;82;21572;-78
2022/06/22 02:37:17;;;;;;;4.58;2.05;;;;;;;25.30;45.39;100095.11;1724631;82;20961;-77
2022/06/22 02:39:46;;;;;;;3.20;2.00;;;;;;;25.29;45.38;100088.54;1741445;81;21056;-78
2022/06/22 02:44:58;;;;;;;3.00;2.20;;;;;;;25.31;45.38;100093.95;1699724;83;21219;-78
2022/06/22 02:47:40;;;;;;;2.87;2.37;;;;;;;25.30;45.38;100104.05;1721353;82;21080;-79
2022/06/22 02:50:23;;;;;;;2.85;2.10;;;;;;;25.31;45.36;100110.66;1675254;83;21002;-78
2022/06/22 02:52:57;;;;;;;3.00;2.10;;;;;;;25.31;45.34;100110.66;1727721;82;21024;-78
2022/06/22 02:55:26;;;;;;;4.25;2.10;;;;;;;25.32;45.36;100117.03;1735770;81;21036;-79
2022/06/22 02:57:56;;;;;;;3.08;2.05;;;;;;;25.31;45.37;100116.23;1745344;82;21538;-78
2022/06/22 03:00:35;;;;;;;3.98;2.10;;;;;;;25.32;45.38;100117.03;1746973;81;21084;-78
2022/06/22 03:03:11;;;;;;;3.15;2.10;;;;;;;25.31;45.38;100102.30;1738651;81;21052;-78
2022/06/22 03:05:38;;;;;;;3.65;2.22;;;;;;;25.33;45.38;100113.09;1722625;81;21096;-78
2022/06/22 03:08:05;;;;;;;4.35;2.02;;;;;;;25.31;45.38;100107.88;1733649;82;21543;-78
2022/06/22 03:10:44;;;;;;;2.67;1.87;;;;;;;25.31;45.38;100103.70;1725462;81;21308;-78
2022/06/22 03:13:27;;;;;;;2.17;1.87;;;;;;;25.32;45.39;100110.88;1736809;81;21054;-78
2022/06/22 03:15:53;;;;;;;3.02;2.00;;;;;;;25.32;45.39;100098.94;1724009;82;21056;-78
2022/06/22 03:18:26;;;;;;;3.72;2.10;;;;;;;25.33;45.37;100099.16;1717076;83;21539;-78
2022/06/22 03:21:06;;;;;;;2.42;2.00;;;;;;;25.32;45.39;100094.17;1726534;81;21099;-78
2022/06/22 03:23:59;;;;;;;3.77;2.00;;;;;;;25.32;45.40;100105.89;1737495;82;21156;-78
2022/06/22 03:26:31;;;;;;;3.33;2.17;;;;;;;25.32;45.40;100110.08;1732220;82;21016;-78
2022/06/22 03:29:24;;;;;;;2.45;1.95;;;;;;;25.30;45.38;100107.64;1723808;82;21354;-79
2022/06/22 03:31:58;;;;;;;3.70;2.02;;;;;;;25.32;45.39;100107.28;1743966;81;21012;-79
2022/06/22 03:34:32;;;;;;;2.55;2.17;;;;;;;25.30;45.38;100111.01;1741442;81;21002;-78
2022/06/22 03:37:16;;;;;;;2.67;2.10;;;;;;;25.30;45.39;100112.41;1730520;81;22125;-79
2022/06/22 03:39:47;;;;;;;2.47;1.85;;;;;;;25.31;45.39;100111.23;1732933;81;21462;-78
2022/06/22 03:42:23;;;;;;;7.55;2.00;;;;;;;25.31;45.38;100114.83;1735132;81;21004;-79
2022/06/22 03:45:10;;;;;;;2.50;1.92;;;;;;;25.30;45.39;100119.36;1747183;81;21067;-79
2022/06/22 03:47:48;;;;;;;2.37;1.87;;;;;;;25.31;45.39;100130.14;1738192;81;21462;-78
2022/06/22 03:50:47;;;;;;;3.02;1.90;;;;;;;25.30;45.39;100132.70;1717474;82;21397;-79
2022/06/22 03:53:39;;;;;;;4.58;2.10;;;;;;;25.29;45.40;100131.08;1725286;81;21115;-78
2022/06/22 03:56:10;;;;;;;2.67;2.02;;;;;;;25.30;45.39;100134.09;1726179;81;21031;-79
2022/06/22 03:58:38;;;;;;;2.60;2.27;;;;;;;25.29;45.41;100138.05;1712238;81;21020;-79
2022/06/22 04:01:05;;;;;;;2.47;1.85;;;;;;;25.31;45.41;100144.66;1721746;81;21054;-78
2022/06/22 04:03:38;;;;;;;5.05;2.08;;;;;;;25.30;45.41;100149.41;1704407;83;21980;-78
2022/06/22 04:06:04;;;;;;;2.87;1.87;;;;;;;25.31;45.41;100145.46;1702770;81;21082;-78
2022/06/22 04:08:37;;;;;;;5.15;2.10;;;;;;;25.32;45.43;100142.09;1716736;83;21027;-78
2022/06/22 04:11:24;;;;;;;2.67;2.25;;;;;;;25.31;45.43;100136.30;1718152;81;21531;-78
2022/06/22 04:13:59;;;;;;;3.55;1.95;;;;;;;25.32;45.43;100135.94;1697596;83;21026;-79
2022/06/22 04:16:31;;;;;;;3.65;1.75;;;;;;;25.32;45.42;100130.95;1719033;83;20909;-78
2022/06/22 04:19:11;;;;;;;2.65;2.02;;;;;;;25.33;45.43;100129.79;1726248;82;21348;-78
2022/06/22 04:21:42;;;;;;;2.55;1.90;;;;;;;25.32;45.42;100124.80;1706282;83;21136;-79
2022/06/22 04:24:21;;;;;;;2.77;2.20;;;;;;;25.32;45.40;100128.98;1721030;81;21560;-79
2022/06/22 04:27:08;;;;;;;2.50;2.00;;;;;;;25.32;45.42;100125.39;1710172;83;20952;-78
2022/06/22 04:29:42;;;;;;;1.95;1.75;;;;;;;25.32;45.42;100127.59;1701913;81;21550;-78
2022/06/22 04:32:24;;;;;;;3.20;1.80;;;;;;;25.32;45.40;100122.02;1713109;82;21482;-79
2022/06/22 04:35:05;;;;;;;2.42;1.80;;;;;;;25.33;45.39;100127.00;1718942;80;21082;-78
2022/06/22 04:37:48;;;;;;;2.12;1.90;;;;;;;25.33;45.41;100121.44;1715152;83;21050;-78
2022/06/22 04:40:36;;;;;;;4.35;2.17;;;;;;;25.32;45.40;100122.02;1717678;83;21019;-78
2022/06/22 04:43:04;;;;;;;3.40;2.00;;;;;;;25.33;45.41;100128.40;1701866;81;21205;-78
2022/06/22 04:45:38;;;;;;;5.87;1.75;;;;;;;25.31;45.31;100134.33;1701207;83;21623;-79
2022/06/22 04:48:09;;;;;;;3.87;2.05;;;;;;;25.28;45.01;100135.64;1709903;83;21404;-78
2022/06/22 04:50:36;;;;;;;3.62;1.82;;;;;;;25.22;44.58;100129.55;1709095;81;21048;-78
2022/06/22 04:53:03;;;;;;;2.85;1.77;;;;;;;25.19;44.42;100132.27;1702622;83;21074;-78
2022/06/22 04:55:29;;;;;;;4.33;1.90;;;;;;;25.14;43.83;100131.96;1670814;83;22187;-78
2022/06/22 04:58:01;;;;;;;4.75;1.80;;;;;;;25.11;43.59;100138.27;1696848;83;21098;-78
2022/06/22 05:00:31;;;;;;;4.22;1.70;;;;;;;25.06;43.16;100132.98;1706685;80;21060;-78
2022/06/22 05:03:00;;;;;;;3.25;1.57;;;;;;;25.00;42.84;100134.42;1689464;83;21055;-76
2022/06/22 05:05:34;;;;;;;6.25;1.80;;;;;;;24.92;42.48;100143.20;1676861;83;21020;-78
2022/06/22 05:08:27;;;;;;;3.92;1.60;;;;;;;24.88;42.17;100147.06;1744898;81;22037;-78
2022/06/22 05:10:58;;;;;;;3.62;1.80;;;;;;;24.82;41.84;100147.11;1674079;83;21517;-78
2022/06/22 05:13:34;;;;;;;2.17;1.32;;;;;;;24.74;41.67;100158.63;1684367;82;21186;-78
2022/06/22 05:16:02;;;;;;;4.83;1.45;;;;;;;24.70;41.45;100157.74;1723312;81;21028;-78
2022/06/22 05:18:34;;;;;;;3.33;1.35;;;;;;;24.67;41.27;100166.81;1715218;81;21129;-78
2022/06/22 05:21:21;;;;;;;4.37;1.70;;;;;;;24.63;41.00;100162.33;1718662;81;21039;-78
2022/06/22 05:23:51;;;;;;;3.10;1.40;;;;;;;24.59;40.82;100170.59;1696573;83;21031;-78
2022/06/22 05:26:18;;;;;;;4.90;1.50;;;;;;;24.56;40.35;100167.96;1714854;81;21063;-77
2022/06/22 05:28:59;;;;;;;4.62;1.70;;;;;;;24.57;40.34;100161.78;1718405;81;21024;-78
2022/06/22 05:31:32;;;;;;;3.52;1.60;;;;;;;24.56;39.91;100162.98;1709747;83;21074;-79
2022/06/22 05:34:01;;;;;;;5.42;1.45;;;;;;;24.53;39.75;100158.92;1700918;81;22017;-77
2022/06/22 05:36:30;;;;;;;3.05;1.40;;;;;;;24.50;39.42;100166.60;1709383;83;21074;-78
2022/06/22 05:38:57;;;;;;;3.35;1.47;;;;;;;24.49;39.14;100160.00;1700870;81;21059;-78
2022/06/22 05:41:30;;;;;;;4.08;1.20;;;;;;;24.48;39.17;100163.39;1723884;80;21059;-78
2022/06/22 05:43:58;;;;;;;3.52;1.30;;;;;;;24.46;38.92;100163.51;1719352;81;20951;-79
2022/06/22 05:46:25;;;;;;;4.35;1.50;;;;;;;24.42;38.74;100166.20;1678969;83;21601;-78
2022/06/22 05:48:52;;;;;;;3.10;1.40;;;;;;;24.43;38.85;100173.39;1749827;80;21458;-78
2022/06/22 05:51:33;;;;;;;4.62;1.50;;;;;;;24.42;38.65;100171.77;1724905;80;21494;-78
2022/06/22 05:54:28;;;;;;;5.67;1.37;;;;;;;24.39;38.46;100160.56;1724649;81;21094;-78
2022/06/22 05:57:00;;;;;;;6.50;1.80;;;;;;;24.33;38.55;100164.76;1732014;80;21070;-78
2022/06/22 05:59:56;;;;;;;3.08;1.60;;;;;;;24.29;38.51;100173.59;1730082;81;21359;-78
2022/06/22 06:02:52;;;;;;;5.65;1.70;;;;;;;24.31;38.77;100174.87;1745808;81;21147;-78
2022/06/22 06:05:42;;;;;;;3.95;1.80;;;;;;;24.35;38.65;100172.17;1718139;81;21098;-78
2022/06/22 06:08:22;;;;;;;2.70;1.22;;;;;;;24.38;38.54;100178.40;1729880;80;21438;-78
2022/06/22 06:10:49;;;;;;;5.03;1.80;;;;;;;24.38;38.43;100164.50;1696058;83;21125;-79
2022/06/22 06:13:37;;;;;;;3.20;1.75;;;;;;;24.36;38.25;100169.02;1660763;84;22135;-80
2022/06/22 06:16:11;;;;;;;4.75;1.45;;;;;;;24.37;38.23;100167.05;1731708;81;21040;-78
2022/06/22 06:18:41;;;;;;;3.22;1.47;;;;;;;24.38;38.13;100169.48;1742885;81;21123;-78
2022/06/22 06:21:11;;;;;;;3.50;1.25;;;;;;;24.40;38.02;100164.96;1727828;81;21087;-78
2022/06/22 06:23:51;;;;;;;5.47;1.70;;;;;;;24.37;37.71;100160.91;1723654;81;21082;-78
2022/06/22 06:29:25;;;;;;;1.92;1.57;;;;;;;24.40;37.87;100149.06;1706626;81;21443;-77
2022/06/22 06:32:18;;;;;;;3.52;1.72;;;;;;;24.42;38.01;100152.87;1712601;81;21490;-78
2022/06/22 06:34:48;;;;;;;2.45;1.60;;;;;;;24.45;38.00;100152.16;1728008;81;21030;-78
2022/06/22 06:37:19;;;;;;;2.70;1.42;;;;;;;24.46;37.92;100145.44;1727429;81;21463;-78
2022/06/22 06:39:48;;;;;;;1.60;1.25;;;;;;;24.47;37.78;100147.86;1723333;81;23256;-78
2022/06/22 06:42:58;;;;;;;4.05;1.60;;;;;;;24.48;37.67;100155.63;1724341;81;21062;-79
2022/06/22 06:45:25;;;;;;;4.17;1.20;;;;;;;24.50;37.71;100143.55;1697960;81;21101;-78
2022/06/22 06:47:55;;;;;;;5.50;1.55;;;;;;;24.52;37.67;100140.65;1724876;81;21050;-78
2022/06/22 06:50:27;;;;;;;2.97;1.40;;;;;;;24.52;37.66;100146.79;1716885;81;21530;-79
2022/06/22 06:53:24;;;;;;;3.00;1.80;;;;;;;24.50;37.65;100149.92;1697523;81;21040;-77
2022/06/22 06:56:02;;;;;;;5.65;1.37;;;;;;;24.51;37.69;100154.32;1709946;81;21051;-79
2022/06/22 06:58:46;;;;;;;3.62;1.80;;;;;;;24.52;37.71;100144.82;1722140;82;21597;-80
2022/06/22 07:01:20;;;;;;;2.72;1.70;;;;;;;24.55;37.62;100136.33;1710224;83;21055;-78
2022/06/22 07:03:57;;;;;;;3.50;1.35;;;;;;;24.53;37.53;100131.11;1723532;81;21079;-78
2022/06/22 07:06:23;;;;;;;;;;;;;;;24.55;37.60;100122.42;1720911;81;21695;-79
2022/06/22 07:09:28;;;;;;;6.45;1.50;;;;;;;24.56;37.61;100120.68;1722508;81;20198;-78
2022/06/22 07:12:06;;;;;;;3.27;1.45;;;;;;;24.57;37.73;100112.53;1714959;82;21524;-78
2022/06/22 07:14:40;;;;;;;1.82;1.20;;;;;;;24.59;37.66;100106.62;1715964;81;21519;-80
2022/06/22 07:17:11;;;;;;;5.47;1.40;;;;;;;24.60;37.62;100113.00;1733018;81;21122;-79
2022/06/22 07:19:49;;;;;;;4.08;1.80;;;;;;;24.62;37.53;100118.41;1708885;82;21173;-78
2022/06/22 07:22:35;;;;;;;3.05;1.50;;;;;;;24.62;37.56;100113.42;1738444;82;21361;-78
2022/06/22 07:25:26;;;;;;;4.37;1.45;;;;;;;24.62;37.52;100114.23;1693970;83;21029;-79
2022/06/22 07:27:57;;;;;;;5.50;1.70;;;;;;;24.64;37.57;100106.35;1723085;82;21052;-78
2022/06/22 07:30:35;;;;;;;3.30;1.80;;;;;;;24.66;37.57;100106.78;1709418;81;21067;-78
2022/06/22 07:33:36;;;;;;;5.37;1.90;;;;;;;24.68;37.57;100110.61;1708325;83;21515;-79
2022/06/22 07:36:29;;;;;;;4.83;1.62;;;;;;;24.69;37.66;100101.09;1652320;83;21084;-78
2022/06/22 07:39:04;;;;;;;3.75;1.70;;;;;;;24.70;37.70;100107.67;1714123;81;21133;-79
2022/06/22 07:41:30;;;;;;;5.00;1.57;;;;;;;24.71;37.69;100098.16;1730674;81;21101;-79
2022/06/22 07:44:18;;;;;;;4.50;1.55;;;;;;;24.75;37.72;100102.41;1718139;81;21782;-79
2022/06/22 07:47:01;;;;;;;3.50;1.67;;;;;;;24.75;37.77;100096.84;1730318;81;21179;-79
2022/06/22 07:49:41;;;;;;;4.40;1.70;;;;;;;24.79;37.77;100089.39;1723807;81;21079;-78
2022/06/22 07:52:18;;;;;;;6.20;1.98;;;;;;;24.81;37.85;100097.61;1726052;81;21055;-79
2022/06/22 07:54:54;;;;;;;5.22;1.67;;;;;;;24.83;37.99;100103.60;1729851;81;21113;-78
2022/06/22 07:57:50;;;;;;;6.20;1.87;;;;;;;24.85;38.02;100104.09;1712824;81;21096;-79
2022/06/22 08:00:20;;;;;;;4.75;1.77;;;;;;;24.89;38.09;100102.20;1620658;84;21920;-78
2022/06/22 08:03:06;;;;;;;3.08;1.30;;;;;;;24.92;38.16;100100.65;1692070;83;21083;-79
2022/06/22 08:05:38;;;;;;;3.25;1.62;;;;;;;24.96;38.29;100101.53;1686475;83;21045;-80
2022/06/22 08:08:13;;;;;;;3.50;1.70;;;;;;;24.98;38.34;100100.59;1666432;84;21071;-79
2022/06/22 08:10:43;;;;;;;3.42;1.90;;;;;;;25.02;38.19;100095.91;1690572;83;21657;-80
2022/06/22 08:13:14;;;;;;;3.25;1.60;;;;;;;25.03;38.11;100096.14;1689783;83;21115;-79
2022/06/22 08:15:49;;;;;;;1.98;1.45;;;;;;;25.04;38.13;100094.95;1682577;84;21080;-79
2022/06/22 08:18:16;;;;;;;3.33;1.90;;;;;;;25.08;38.29;100102.01;1668995;83;21091;-80
2022/06/22 08:20:43;;;;;;;4.17;1.55;;;;;;;25.09;38.17;100093.27;1671148;84;21056;-79
2022/06/22 08:23:20;;;;;;;2.85;1.75;;;;;;;25.09;38.04;100094.66;1687067;83;21150;-77
2022/06/22 08:25:47;;;;;;;3.62;1.80;;;;;;;25.10;38.09;100089.33;1693406;82;21083;-79
2022/06/22 08:28:15;;;;;;;6.12;1.67;;;;;;;25.13;38.07;100086.39;1701438;82;21023;-78
2022/06/22 08:30:41;;;;;;;4.92;1.57;;;;;;;25.14;38.13;100092.18;1666175;84;21595;-78
2022/06/22 08:33:14;;;;;;;3.75;2.00;;;;;;;25.15;38.17;100097.39;1668878;83;21056;-78
2022/06/22 08:35:55;;;;;;;4.40;2.12;;;;;;;25.16;38.05;100104.58;1676145;83;21072;-80
2022/06/22 08:38:29;;;;;;;2.98;1.82;;;;;;;25.18;37.87;100100.02;1697679;83;21205;-79
2022/06/22 08:41:32;;;;;;;2.47;1.85;;;;;;;25.17;37.71;100099.21;1702833;81;21122;-80
2022/06/22 08:44:19;;;;;;;5.05;1.80;;;;;;;25.19;37.98;100098.86;1688299;83;21007;-79
2022/06/22 08:47:17;;;;;;;7.53;2.10;;;;;;;25.20;37.81;100099.89;1671890;83;21067;-79
2022/06/22 08:50:16;;;;;;;4.97;1.87;;;;;;;25.22;37.56;100092.55;1677704;83;21055;-80
2022/06/22 08:53:12;;;;;;;3.62;2.45;;;;;;;25.23;37.64;100096.38;1685536;82;21175;-82
2022/06/22 08:56:07;;;;;;;7.00;2.40;;;;;;;25.25;37.79;100098.80;1682372;82;21077;-79
2022/06/22 08:59:14;;;;;;;6.33;2.02;;;;;;;25.27;37.63;100093.07;1741697;80;21111;-78
2022/06/22 09:01:57;;;;;;;4.83;3.00;;;;;;;25.26;37.61;100100.39;1731182;81;21103;-81
2022/06/22 09:04:54;;;;;;;4.20;2.10;;;;;;;25.26;37.84;100096.21;1707228;81;21071;-80
2022/06/22 09:07:37;;;;;;;5.30;1.95;;;;;;;25.29;37.92;100099.67;1745257;80;22045;-78
2022/06/22 09:10:24;;;;;;;7.05;2.15;;;;;;;25.31;37.88;100095.34;1740720;81;21269;-78
2022/06/22 09:12:59;;;;;;;3.75;1.95;;;;;;;25.33;37.77;100090.20;1733217;81;21630;-78
2022/06/22 09:16:01;;;;;;;3.35;1.90;;;;;;;25.34;37.89;100086.83;1735371;80;21099;-78
2022/06/22 09:18:38;;;;;;;5.87;2.17;;;;;;;25.36;37.75;100083.91;1738120;81;21031;-78
2022/06/22 09:21:28;;;;;;;6.42;2.52;;;;;;;25.36;37.57;100085.31;1724938;81;21425;-79
2022/06/22 09:24:15;;;;;;;4.47;1.90;;;;;;;25.37;37.57;100078.57;1726460;81;20987;-80
2022/06/22 09:27:16;;;;;;;2.47;1.62;;;;;;;25.38;37.44;100080.74;1702061;83;21708;-78
2022/06/22 09:30:10;;;;;;;3.00;1.90;;;;;;;25.37;37.59;100081.36;1714014;81;21051;-78
2022/06/22 09:33:04;;;;;;;4.92;1.82;;;;;;;25.38;37.73;100081.55;1671990;84;21056;-80
2022/06/22 09:36:09;;;;;;;5.70;2.05;;;;;;;25.39;37.64;100072.62;1718927;82;21170;-77
2022/06/22 09:39:01;;;;;;;5.40;2.15;;;;;;;25.40;37.55;100070.05;1712478;79;21510;-78
2022/06/22 09:41:57;;;;;;;3.90;1.87;;;;;;;25.41;37.42;100071.67;1714523;82;21036;-79
2022/06/22 09:44:54;;;;;;;4.35;2.17;;;;;;;25.40;37.10;100061.12;1720425;81;21430;-78
2022/06/22 09:47:37;;;;;;;4.17;1.77;;;;;;;25.42;37.33;100065.72;1715915;80;21734;-79
2022/06/22 09:50:28;;;;;;;4.92;1.80;;;;;;;25.43;37.56;100057.59;1727703;82;21142;-79
2022/06/22 09:53:37;;;;;;;4.40;1.67;;;;;;;25.44;37.51;100056.42;1738518;81;21478;-79
2022/06/22 09:56:39;;;;;;;3.12;1.35;;;;;;;25.45;37.21;100059.44;1699560;81;21045;-79
2022/06/22 09:59:29;;;;;;;3.62;1.45;;;;;;;25.46;37.28;100052.67;1712972;82;21023;-79
2022/06/22 10:02:06;;;;;;;2.42;1.47;;;;;;;25.49;36.80;100049.75;1712126;81;21629;-78
2022/06/22 10:04:47;;;;;;;3.75;1.50;;;;;;;25.51;36.79;100043.79;1734973;81;21198;-77
2022/06/22 10:07:28;;;;;;;3.08;1.60;;;;;;;25.51;36.42;100043.79;1754859;80;21064;-78
2022/06/22 10:10:13;;;;;;;3.22;1.60;;;;;;;25.51;36.29;100050.75;1725074;81;21051;-78
2022/06/22 10:13:05;;;;;;;4.35;1.47;;;;;;;25.52;36.38;100053.77;1728018;81;21118;-78
2022/06/22 10:16:04;;;;;;;2.10;1.50;;;;;;;25.54;36.13;100061.21;1727733;83;21115;-78
2022/06/22 10:18:58;;;;;;;2.30;1.82;;;;;;;25.54;35.97;100060.63;1729764;81;21282;-78
2022/06/22 10:21:33;;;;;;;2.67;1.52;;;;;;;25.54;36.14;100066.78;1725466;81;21890;-78
2022/06/22 10:24:38;;;;;;;3.25;1.40;;;;;;;25.55;36.18;100063.61;1723647;81;21089;-79
2022/06/22 10:27:31;;;;;;;2.83;1.37;;;;;;;25.58;36.21;100063.48;1733690;81;21082;-79
2022/06/22 10:30:34;;;;;;;3.85;1.32;;;;;;;25.57;35.81;100055.70;1730917;81;21028;-81
2022/06/22 10:33:44;;;;;;;4.25;1.70;;;;;;;25.59;35.65;100065.88;1704057;81;21381;-78
2022/06/22 10:36:43;;;;;;;2.70;1.35;;;;;;;25.60;35.67;100066.68;1717986;81;21023;-78
2022/06/22 10:39:39;;;;;;;5.37;1.60;;;;;;;25.61;35.66;100065.52;1709096;82;21513;-78
2022/06/22 10:45:34;;;;;;;5.55;1.60;;;;;;;25.62;35.46;100062.37;1709949;81;21526;-78
2022/06/22 10:48:23;;;;;;;4.90;1.60;;;;;;;25.62;35.40;100051.81;1734239;81;21324;-78
2022/06/22 10:51:26;;;;;;;1.65;1.30;;;;;;;25.63;35.52;100052.03;1717692;81;21066;-78
2022/06/22 10:54:10;;;;;;;3.47;1.75;;;;;;;25.63;35.58;100050.03;1735340;80;21071;-78
2022/06/22 10:57:00;;;;;;;6.50;1.50;;;;;;;25.63;35.44;100044.45;1729545;81;21514;-78
2022/06/22 11:00:04;;;;;;;7.85;2.17;;;;;;;25.63;35.25;100040.28;1718583;82;21109;-78
2022/06/22 11:02:59;;;;;;;4.80;1.32;;;;;;;25.65;35.11;100039.34;1636121;85;21680;-78
2022/06/22 11:05:54;;;;;;;2.25;1.17;;;;;;;25.65;35.11;100042.70;1659390;84;21316;-78
2022/06/22 11:08:50;;;;;;;2.35;1.50;;;;;;;25.66;35.22;100031.78;1651939;85;21203;-78
2022/06/22 11:11:49;;;;;;;3.92;1.50;;;;;;;25.65;35.33;100035.16;1633310;87;21706;-78
2022/06/22 11:14:33;;;;;;;4.25;1.40;;;;;;;25.66;35.39;100035.38;1647133;85;21065;-78
2022/06/22 11:17:34;;;;;;;3.87;1.65;;;;;;;25.66;35.62;100042.34;1631980;85;21061;-79
2022/06/22 11:20:26;;;;;;;3.15;1.20;;;;;;;25.66;35.65;100032.59;1632101;85;21049;-78
2022/06/22 11:22:53;;;;;;;3.70;1.27;;;;;;;25.69;35.52;100024.07;1655749;85;21092;-80
2022/06/22 11:32:11;;;;;;;2.37;1.30;;;;;;;25.71;35.49;100021.73;1663532;84;21331;-78
2022/06/22 11:35:17;;;;;;;2.47;1.40;;;;;;;25.71;35.63;100011.98;1659697;85;21029;-79
2022/06/22 11:38:24;;;;;;;4.20;1.50;;;;;;;25.71;35.73;100012.80;1626343;85;21068;-78
2022/06/22 11:41:20;;;;;;;1.70;1.10;;;;;;;25.71;35.92;100023.13;1643938;85;21057;-78
2022/06/22 11:44:14;;;;;;;2.33;1.40;;;;;;;25.69;35.96;100015.12;1682412;84;21063;-78
2022/06/22 11:46:52;;;;;;;1.95;1.35;;;;;;;25.70;36.04;100015.35;1630840;86;21627;-78
2022/06/22 11:49:42;;;;;;;1.72;1.20;;;;;;;25.70;36.14;100012.56;1663018;84;21156;-78
2022/06/22 11:52:44;;;;;;;2.45;1.72;;;;;;;25.70;36.09;100006.19;1664311;85;21080;-78
2022/06/22 11:55:26;;;;;;;2.20;1.40;;;;;;;25.71;36.20;100005.02;1654399;85;21128;-78
2022/06/22 11:58:44;;;;;;;3.40;1.50;;;;;;;25.71;36.17;100005.02;1683144;84;21452;-79
2022/06/22 12:01:45;;;;;;;4.37;1.80;;;;;;;25.71;36.13;100012.80;1727935;80;21542;-78
2022/06/22 12:04:21;;;;;;;;;;;;;;;25.72;36.02;100011.59;1743745;81;20976;-78
2022/06/22 12:06:59;;;;;;;1.82;1.20;;;;;;;25.72;35.93;100019.95;1749004;80;20188;-78
2022/06/22 12:09:56;;;;;;;6.58;1.75;;;;;;;25.72;35.94;100015.77;1753423;81;21609;-78
2022/06/22 12:12:50;;;;;;;3.45;1.45;;;;;;;25.73;35.86;100010.42;1745167;81;21600;-79
2022/06/22 12:15:44;;;;;;;2.10;1.20;;;;;;;25.73;35.92;100008.22;1737068;80;39068;-77
2022/06/22 12:18:25;;;;;;;1.70;1.10;;;;;;;25.72;35.94;100008.80;1749064;80;21056;-79
2022/06/22 12:21:16;;;;;;;1.95;1.50;;;;;;;25.73;35.87;100004.84;1751684;80;21127;-78
2022/06/22 12:24:10;;;;;;;1.98;1.40;;;;;;;25.73;35.94;100013.20;1734459;81;21024;-78
2022/06/22 12:26:44;;;;;;;2.45;1.50;;;;;;;25.73;35.95;100009.03;1751222;80;21092;-80
2022/06/22 12:29:39;;;;;;;5.58;1.45;;;;;;;25.74;36.16;100016.80;1741226;81;21296;-81
2022/06/22 12:32:40;;;;;;;1.90;1.37;;;;;;;25.74;36.08;100015.41;1751159;80;21064;-78
2022/06/22 12:35:27;;;;;;;2.30;1.32;;;;;;;25.75;35.88;100014.24;1752778;80;21041;-81
2022/06/22 12:37:57;;;;;;;2.20;1.27;;;;;;;25.76;36.06;100017.22;1660390;83;21024;-79
2022/06/22 12:40:56;;;;;;;2.55;1.45;;;;;;;25.76;36.08;100013.05;1756907;80;21080;-79
2022/06/22 12:43:33;;;;;;;5.60;1.50;;;;;;;25.76;36.21;100010.25;1740272;81;21171;-78
2022/06/22 12:46:23;;;;;;;3.33;1.30;;;;;;;25.76;36.12;100001.90;1736191;80;21039;-79
2022/06/22 12:49:03;;;;;;;2.58;1.27;;;;;;;25.77;35.93;100000.14;1703689;83;21068;-77
2022/06/22 12:51:53;;;;;;;2.08;1.32;;;;;;;25.78;36.17;100007.92;1748461;80;21055;-79
2022/06/22 12:54:30;;;;;;;1.90;1.57;;;;;;;25.78;36.24;100014.88;1741478;80;21044;-78